Time;durP1;ratioP1;P1;durP2;ratioP2;P2;SDS_P1;SDS_P2;PMS_P1;PMS_P2;Temp;Humidity;BMP_temperature;BMP_pressure;BME280_temperature;BME280_humidity;BME280_pressure;Samples;Min_cycle;Max_cycle;Signal;HPM_P1;HPM_P2
2023/10/23 00:01:41;;;;;;;21.90;11.40;;;;;;;14.27;100.00;100490.56;105961;1256;60411;-74
2023/10/23 00:04:09;;;;;;;18.70;12.00;;;;;;;14.30;100.00;100484.75;105976;1255;73853;-76
2023/10/23 00:06:36;;;;;;;19.90;11.20;;;;;;;14.32;100.00;100479.29;105947;1251;61639;-74
2023/10/23 00:09:04;;;;;;;13.60;11.60;;;;;;;14.34;100.00;100473.20;107214;1251;72621;-74
2023/10/23 00:11:31;;;;;;;19.80;11.30;;;;;;;14.34;100.00;100474.76;106669;1254;60768;-78
2023/10/23 00:13:58;;;;;;;20.20;11.10;;;;;;;14.34;100.00;100467.37;105925;1251;60451;-77
2023/10/23 00:16:25;;;;;;;14.40;10.80;;;;;;;14.33;100.00;100468.47;105941;1251;73939;-77
2023/10/23 00:18:52;;;;;;;22.70;11.10;;;;;;;14.31;100.00;100466.84;105843;1254;63863;-73
2023/10/23 00:21:19;;;;;;;25.70;12.40;;;;;;;14.31;100.00;100466.69;105924;1254;72561;-74
2023/10/23 00:23:46;;;;;;;13.70;10.40;;;;;;;14.30;100.00;100468.02;106026;1254;62127;-75
2023/10/23 00:26:13;;;;;;;16.70;10.60;;;;;;;14.29;100.00;100464.57;106042;1251;60569;-74
2023/10/23 00:28:41;;;;;;;17.00;10.70;;;;;;;14.29;100.00;100458.98;105892;1256;72973;-75
2023/10/23 00:31:09;;;;;;;16.30;10.00;;;;;;;14.29;100.00;100452.80;105914;1254;64021;-75
2023/10/23 00:33:35;;;;;;;17.10;11.30;;;;;;;14.30;100.00;100449.71;105880;1251;71530;-76
2023/10/23 00:36:02;;;;;;;23.50;13.10;;;;;;;14.31;100.00;100444.58;105822;1254;62190;-78
2023/10/23 00:38:30;;;;;;;17.20;11.30;;;;;;;14.30;100.00;100453.27;106004;1250;60907;-75
2023/10/23 00:40:57;;;;;;;18.10;11.20;;;;;;;14.30;100.00;100452.52;105839;1251;73888;-73
2023/10/23 00:43:24;;;;;;;14.10;9.90;;;;;;;14.32;100.00;100446.61;105937;1254;63889;-74
2023/10/23 00:46:02;;;;;;;24.20;11.80;;;;;;;14.34;100.00;100440.84;105891;1251;72606;-75
2023/10/23 00:48:29;;;;;;;21.70;13.70;;;;;;;14.36;100.00;100437.17;105889;1251;60706;-74
2023/10/23 00:50:58;;;;;;;17.50;12.50;;;;;;;14.36;100.00;100432.41;105900;1254;60403;-73
2023/10/23 00:53:27;;;;;;;18.80;11.00;;;;;;;14.36;100.00;100428.88;105910;1254;73781;-75
2023/10/23 00:55:55;;;;;;;18.80;12.50;;;;;;;14.36;100.00;100425.72;105937;1254;63920;-75
2023/10/23 00:58:26;;;;;;;16.40;11.30;;;;;;;14.35;100.00;100418.77;105949;1254;71410;-74
2023/10/23 01:00:54;;;;;;;15.50;11.30;;;;;;;14.35;100.00;100418.45;105962;1254;60827;-74
2023/10/23 01:03:21;;;;;;;16.10;11.30;;;;;;;14.35;100.00;100419.98;106016;1251;60463;-77
2023/10/23 01:05:48;;;;;;;15.20;11.30;;;;;;;14.36;100.00;100418.70;105883;1261;73850;-75
2023/10/23 01:08:16;;;;;;;16.60;12.10;;;;;;;14.35;100.00;100417.34;105847;1254;63846;-74
2023/10/23 01:10:43;;;;;;;14.40;11.50;;;;;;;14.35;100.00;100417.53;105915;1251;72799;-75
2023/10/23 01:13:10;;;;;;;17.40;11.60;;;;;;;14.35;100.00;100410.48;105905;1256;61961;-75
2023/10/23 01:15:37;;;;;;;16.30;11.10;;;;;;;14.34;100.00;100406.50;105878;1254;60448;-76
2023/10/23 01:18:04;;;;;;;17.40;10.60;;;;;;;14.34;100.00;100401.63;105913;1254;73818;-74
2023/10/23 01:20:31;;;;;;;13.40;10.70;;;;;;;14.33;100.00;100399.41;105947;1257;62975;-76
2023/10/23 01:22:59;;;;;;;13.30;10.60;;;;;;;14.34;100.00;100386.68;105998;1251;72687;-73
2023/10/23 01:25:26;;;;;;;16.40;10.30;;;;;;;14.35;100.00;100385.73;106026;1254;60518;-77
2023/10/23 01:27:53;;;;;;;18.70;11.30;;;;;;;14.35;100.00;100382.89;105950;1251;60544;-73
2023/10/23 01:30:21;;;;;;;16.80;10.00;;;;;;;14.36;100.00;100384.55;105975;1251;73822;-76
2023/10/23 01:32:48;;;;;;;15.90;10.80;;;;;;;14.38;100.00;100384.23;105908;1254;62954;-73
2023/10/23 01:35:15;;;;;;;19.70;11.50;;;;;;;14.40;100.00;100381.81;105857;1251;72459;-75
2023/10/23 01:37:41;;;;;;;15.40;11.20;;;;;;;14.41;100.00;100376.41;105869;1254;60533;-75
2023/10/23 01:40:10;;;;;;;19.20;11.80;;;;;;;14.43;100.00;100370.31;105990;1251;60515;-76
2023/10/23 01:42:37;;;;;;;17.10;10.20;;;;;;;14.42;100.00;100372.09;105838;1251;73896;-74
2023/10/23 01:45:06;;;;;;;15.80;10.30;;;;;;;14.43;100.00;100369.61;105830;1251;63749;-75
2023/10/23 01:47:35;;;;;;;15.60;11.60;;;;;;;14.43;100.00;100367.48;105777;1254;72355;-78
2023/10/23 01:50:02;;;;;;;17.60;11.50;;;;;;;14.43;100.00;100377.33;105946;1254;61848;-74
2023/10/23 01:52:29;;;;;;;19.70;11.90;;;;;;;14.43;100.00;100377.34;105825;1251;60435;-77
2023/10/23 01:54:58;;;;;;;16.10;12.50;;;;;;;14.42;100.00;100378.67;106007;1251;73764;-76
2023/10/23 01:57:25;;;;;;;16.90;12.20;;;;;;;14.39;100.00;100385.75;105922;1254;63762;-76
2023/10/23 01:59:52;;;;;;;14.40;12.00;;;;;;;14.37;100.00;100392.25;105928;1251;72696;-77
2023/10/23 02:02:19;;;;;;;16.30;10.80;;;;;;;14.36;100.00;100398.98;105799;1251;61996;-76
2023/10/23 02:04:46;;;;;;;19.90;12.30;;;;;;;14.33;100.00;100401.67;105831;1251;60540;-74
2023/10/23 02:07:13;;;;;;;16.20;12.00;;;;;;;14.32;100.00;100400.89;105840;1251;72645;-73
2023/10/23 02:09:40;;;;;;;17.80;13.10;;;;;;;14.31;100.00;100405.17;105887;1254;63772;-74
2023/10/23 02:12:07;;;;;;;16.50;11.60;;;;;;;14.29;100.00;100406.71;105781;1251;71399;-74
2023/10/23 02:14:34;;;;;;;15.60;12.30;;;;;;;14.27;100.00;100416.91;105846;1251;61901;-73
2023/10/23 02:17:02;;;;;;;14.00;11.30;;;;;;;14.26;100.00;100419.95;105756;1254;60502;-75
2023/10/23 02:19:30;;;;;;;16.10;12.40;;;;;;;14.25;100.00;100422.17;105865;1251;73905;-73
2023/10/23 02:21:57;;;;;;;14.10;12.10;;;;;;;14.24;100.00;100411.67;106076;1254;62063;-76
2023/10/23 02:24:24;;;;;;;15.90;12.60;;;;;;;14.23;100.00;100412.61;105912;1251;71124;-75
2023/10/23 02:26:51;;;;;;;12.90;10.90;;;;;;;14.23;100.00;100417.04;105898;1253;61905;-76
2023/10/23 02:29:18;;;;;;;13.80;11.30;;;;;;;14.23;100.00;100417.38;105896;1256;60422;-74
2023/10/23 02:31:45;;;;;;;19.30;12.40;;;;;;;14.23;100.00;100413.52;105845;1254;74041;-73
2023/10/23 02:34:12;;;;;;;16.20;12.00;;;;;;;14.24;100.00;100418.23;105810;1250;62411;-73
2023/10/23 02:36:39;;;;;;;14.90;11.30;;;;;;;14.24;100.00;100425.56;105823;1251;70274;-75
2023/10/23 02:39:06;;;;;;;13.70;10.90;;;;;;;14.24;100.00;100428.39;105896;1254;61997;-73
2023/10/23 02:41:33;;;;;;;11.50;10.00;;;;;;;14.25;100.00;100435.04;105875;1251;60547;-72
2023/10/23 02:44:00;;;;;;;14.20;10.50;;;;;;;14.25;100.00;100435.69;105970;1250;73698;-73
2023/10/23 02:46:28;;;;;;;13.00;10.40;;;;;;;14.26;100.00;100429.14;106030;1254;63894;-75
2023/10/23 02:48:55;;;;;;;10.90;9.70;;;;;;;14.26;100.00;100428.98;105758;1251;73195;-74
2023/10/23 02:51:22;;;;;;;14.50;10.30;;;;;;;14.26;100.00;100429.61;106177;1254;62054;-73
2023/10/23 02:53:49;;;;;;;11.80;10.10;;;;;;;14.26;100.00;100425.61;106675;1250;60607;-73
2023/10/23 02:56:16;;;;;;;12.40;9.70;;;;;;;14.25;100.00;100431.99;106901;1250;72351;-72
2023/10/23 02:58:43;;;;;;;10.60;9.50;;;;;;;14.26;100.00;100430.58;106144;1254;63821;-74
2023/10/23 03:01:28;;;;;;;12.70;9.60;;;;;;;14.25;100.00;100428.35;105874;1251;72645;-74
2023/10/23 03:03:55;;;;;;;13.60;9.50;;;;;;;14.26;100.00;100422.78;105986;1253;61949;-75
2023/10/23 03:06:22;;;;;;;11.20;9.50;;;;;;;14.26;100.00;100415.44;105943;1251;60431;-74
2023/10/23 03:08:49;;;;;;;13.20;9.70;;;;;;;14.26;100.00;100403.27;105957;1250;72411;-74
2023/10/23 03:11:17;;;;;;;12.50;9.30;;;;;;;14.26;100.00;100399.21;105978;1254;63837;-73
2023/10/23 03:13:45;;;;;;;12.10;9.40;;;;;;;14.25;100.00;100395.23;105926;1251;71481;-75
2023/10/23 03:16:17;;;;;;;11.40;10.10;;;;;;;14.25;100.00;100393.35;105902;1254;61982;-76
2023/10/23 03:18:45;;;;;;;11.50;10.00;;;;;;;14.24;100.00;100383.94;105981;1250;60481;-73
2023/10/23 03:21:12;;;;;;;12.30;10.40;;;;;;;14.22;100.00;100379.81;105932;1251;74017;-74
2023/10/23 03:23:39;;;;;;;10.00;9.10;;;;;;;14.22;100.00;100374.27;105890;1254;62252;-75
2023/10/23 03:26:06;;;;;;;13.20;9.20;;;;;;;14.20;100.00;100375.56;105862;1254;72695;-74
2023/10/23 03:28:33;;;;;;;11.40;10.00;;;;;;;14.21;100.00;100375.38;105818;1256;61869;-75
2023/10/23 03:31:02;;;;;;;12.50;9.30;;;;;;;14.21;100.00;100374.35;105834;1250;60408;-74
2023/10/23 03:33:32;;;;;;;11.70;10.60;;;;;;;14.20;100.00;100367.35;105945;1251;72931;-79
2023/10/23 03:35:58;;;;;;;12.40;11.10;;;;;;;14.20;100.00;100363.89;106120;1254;63866;-74
2023/10/23 03:38:25;;;;;;;13.70;10.00;;;;;;;14.19;100.00;100369.17;106005;1250;72672;-74
2023/10/23 03:40:57;;;;;;;14.20;11.20;;;;;;;14.19;100.00;100373.06;105811;1256;63397;-74
2023/10/23 03:43:24;;;;;;;14.30;11.00;;;;;;;14.20;100.00;100371.40;105877;1250;60451;-73
2023/10/23 03:45:51;;;;;;;13.50;11.30;;;;;;;14.22;100.00;100373.16;105987;1251;73849;-74
2023/10/23 03:48:18;;;;;;;13.80;11.00;;;;;;;14.25;100.00;100374.52;105965;1251;64012;-75
2023/10/23 03:50:48;;;;;;;12.80;10.50;;;;;;;14.28;100.00;100383.80;105779;1254;72655;-75
2023/10/23 03:53:15;;;;;;;11.90;10.70;;;;;;;14.31;100.00;100393.73;105836;1256;61820;-73
2023/10/23 03:55:43;;;;;;;13.10;11.80;;;;;;;14.33;100.00;100411.69;105909;1251;60457;-72
2023/10/23 03:58:12;;;;;;;12.00;10.80;;;;;;;14.35;100.00;100424.52;105872;1254;73823;-74
2023/10/23 04:00:39;;;;;;;14.00;11.00;;;;;;;14.36;100.00;100430.65;105844;1254;63841;-73
2023/10/23 04:03:06;;;;;;;14.30;10.80;;;;;;;14.38;100.00;100434.33;105827;1250;72656;-72
2023/10/23 04:05:39;;;;;;;18.70;12.10;;;;;;;14.41;100.00;100437.32;105850;1254;62037;-74
2023/10/23 04:08:06;;;;;;;15.70;12.10;;;;;;;14.43;100.00;100441.89;105927;1254;60878;-76
2023/10/23 04:10:33;;;;;;;14.90;12.00;;;;;;;14.44;100.00;100445.65;105932;1250;71507;-75
2023/10/23 04:13:01;;;;;;;16.90;13.50;;;;;;;14.47;100.00;100450.33;105913;1254;64648;-75
2023/10/23 04:15:29;;;;;;;15.30;12.00;;;;;;;14.50;100.00;100451.71;105962;1250;72735;-74
2023/10/23 04:17:55;;;;;;;16.00;13.00;;;;;;;14.52;100.00;100442.77;105852;1253;60809;-74
2023/10/23 04:20:23;;;;;;;16.40;13.50;;;;;;;14.53;100.00;100429.33;105834;1251;60543;-74
2023/10/23 04:22:50;;;;;;;19.20;14.40;;;;;;;14.53;100.00;100420.52;105952;1254;72872;-74
2023/10/23 04:25:20;;;;;;;21.80;15.50;;;;;;;14.50;100.00;100418.27;105871;1254;62542;-74
2023/10/23 04:27:47;;;;;;;17.50;14.40;;;;;;;14.46;100.00;100417.32;105872;1254;72734;-74
2023/10/23 04:30:16;;;;;;;22.60;15.50;;;;;;;14.43;100.00;100430.98;105920;1254;61912;-76
2023/10/23 04:32:43;;;;;;;20.70;15.10;;;;;;;14.43;100.00;100430.98;105993;1250;60423;-76
2023/10/23 04:35:10;;;;;;;23.20;16.80;;;;;;;14.45;100.00;100424.48;105830;1250;73876;-76
2023/10/23 04:37:36;;;;;;;24.40;16.40;;;;;;;14.47;100.00;100421.12;105933;1254;63894;-74
2023/10/23 04:40:04;;;;;;;20.90;15.60;;;;;;;14.49;100.00;100410.95;105859;1254;72622;-75
2023/10/23 04:42:34;;;;;;;27.40;15.60;;;;;;;14.51;100.00;100403.79;105916;1250;61929;-77
2023/10/23 04:45:01;;;;;;;21.50;16.70;;;;;;;14.51;100.00;100398.10;105938;1250;60546;-75
2023/10/23 04:47:28;;;;;;;20.50;16.00;;;;;;;14.52;100.00;100413.32;105848;1250;74006;-78
2023/10/23 04:49:55;;;;;;;20.20;15.70;;;;;;;14.55;100.00;100422.50;105982;1256;63890;-73
2023/10/23 04:52:23;;;;;;;25.30;17.10;;;;;;;14.57;100.00;100421.77;105867;1250;72668;-76
2023/10/23 04:54:50;;;;;;;19.60;16.10;;;;;;;14.61;100.00;100414.05;105988;1254;62006;-76
2023/10/23 04:57:17;;;;;;;28.00;16.40;;;;;;;14.64;100.00;100413.63;106026;1250;60455;-76
2023/10/23 04:59:44;;;;;;;20.50;15.60;;;;;;;14.69;100.00;100424.01;106016;1250;73776;-75
2023/10/23 05:02:12;;;;;;;24.50;16.50;;;;;;;14.71;100.00;100433.67;105945;1254;64039;-75
2023/10/23 05:04:38;;;;;;;22.50;16.80;;;;;;;14.75;100.00;100448.54;106029;1254;71410;-77
2023/10/23 05:07:05;;;;;;;20.50;16.20;;;;;;;14.77;100.00;100451.73;105883;1251;60838;-76
2023/10/23 05:09:32;;;;;;;23.00;17.30;;;;;;;14.78;100.00;100460.64;105865;1250;60606;-76
2023/10/23 05:11:58;;;;;;;21.50;16.90;;;;;;;14.79;100.00;100456.27;105918;1251;73915;-76
2023/10/23 05:14:26;;;;;;;23.80;17.60;;;;;;;14.81;100.00;100451.91;105952;1254;63851;-76
2023/10/23 05:16:55;;;;;;;23.00;16.30;;;;;;;14.83;100.00;100452.59;105907;1250;72611;-76
2023/10/23 05:19:23;;;;;;;25.90;16.80;;;;;;;14.87;100.00;100454.61;105959;1254;62074;-78
2023/10/23 05:21:50;;;;;;;23.30;16.80;;;;;;;14.90;100.00;100456.27;105938;1250;60540;-78
2023/10/23 05:24:17;;;;;;;25.40;17.70;;;;;;;14.92;100.00;100464.52;106001;1250;73846;-76
2023/10/23 05:26:43;;;;;;;27.00;18.90;;;;;;;14.96;100.00;100466.32;106075;1250;60350;-76
2023/10/23 05:29:10;;;;;;;22.90;17.50;;;;;;;15.00;100.00;100474.50;105871;1251;72528;-73
2023/10/23 05:31:37;;;;;;;23.00;17.90;;;;;;;15.03;100.00;100475.25;105957;1254;61998;-76
2023/10/23 05:34:06;;;;;;;22.70;16.30;;;;;;;15.07;100.00;100475.80;106010;1254;60629;-75
2023/10/23 05:36:33;;;;;;;26.60;17.30;;;;;;;15.12;100.00;100473.30;105899;1250;73950;-75
2023/10/23 05:39:01;;;;;;;26.40;17.60;;;;;;;15.18;100.00;100470.25;106092;1254;62933;-74
2023/10/23 05:41:28;;;;;;;24.30;16.90;;;;;;;15.24;100.00;100470.60;107298;1253;72747;-74
2023/10/23 05:43:54;;;;;;;22.30;16.60;;;;;;;15.31;100.00;100471.95;106712;1254;61881;-73
2023/10/23 05:46:23;;;;;;;26.70;18.80;;;;;;;15.39;100.00;100469.73;106023;1253;60408;-75
2023/10/23 05:48:49;;;;;;;23.90;16.80;;;;;;;15.45;100.00;100477.30;105883;1251;73789;-74
2023/10/23 05:51:17;;;;;;;24.50;17.10;;;;;;;15.52;100.00;100481.27;105900;1254;63843;-75
2023/10/23 05:53:45;;;;;;;25.30;18.80;;;;;;;15.59;100.00;100482.13;105973;1254;72462;-76
2023/10/23 05:56:12;;;;;;;24.30;18.30;;;;;;;15.67;100.00;100478.35;105940;1254;62109;-77
2023/10/23 05:58:39;;;;;;;28.90;19.30;;;;;;;15.74;100.00;100476.89;106137;1250;60489;-75
2023/10/23 06:01:07;;;;;;;25.30;19.60;;;;;;;15.87;100.00;100471.74;106022;1254;73816;-75
2023/10/23 06:03:35;;;;;;;26.70;18.80;;;;;;;16.01;100.00;100475.30;105909;1254;62656;-75
2023/10/23 06:06:02;;;;;;;23.70;18.60;;;;;;;16.15;100.00;100477.30;105827;1250;72647;-77
2023/10/23 06:08:29;;;;;;;24.00;18.20;;;;;;;16.29;100.00;100478.21;106002;1254;61942;-76
2023/10/23 06:10:56;;;;;;;27.50;18.50;;;;;;;16.54;100.00;100477.41;105995;1251;60636;-76
2023/10/23 06:13:23;;;;;;;26.00;18.70;;;;;;;16.85;100.00;100468.19;105882;1251;73887;-73
2023/10/23 06:15:51;;;;;;;24.50;16.60;;;;;;;17.11;100.00;100463.77;105934;1250;62659;-77
2023/10/23 06:18:18;;;;;;;25.10;18.00;;;;;;;17.27;100.00;100468.56;105888;1254;72677;-76
2023/10/23 06:20:55;;;;;;;26.30;19.30;;;;;;;17.33;100.00;100473.08;106005;1254;61819;-73
2023/10/23 06:23:23;;;;;;;27.50;17.50;;;;;;;17.41;100.00;100477.34;105957;1250;60450;-71
2023/10/23 06:25:55;;;;;;;23.90;17.60;;;;;;;17.45;100.00;100479.27;106030;1254;74537;-72
2023/10/23 06:28:22;;;;;;;24.90;17.00;;;;;;;17.46;100.00;100479.02;105997;1254;62787;-70
2023/10/23 06:30:53;;;;;;;23.70;17.80;;;;;;;17.44;100.00;100472.29;105966;1250;72706;-71
2023/10/23 06:33:20;;;;;;;29.70;20.00;;;;;;;17.42;100.00;100474.96;105798;1254;61867;-72
2023/10/23 06:35:57;;;;;;;23.20;17.00;;;;;;;17.39;100.00;100468.99;105905;1250;60518;-70
2023/10/23 06:38:24;;;;;;;21.00;16.50;;;;;;;17.35;100.00;100475.38;105977;1250;72644;-71
2023/10/23 06:40:54;;;;;;;26.20;17.40;;;;;;;17.32;100.00;100480.94;105817;1254;64352;-69
2023/10/23 06:43:33;;;;;;;25.20;16.70;;;;;;;17.28;100.00;100484.65;105735;1250;72400;-70
2023/10/23 06:46:00;;;;;;;26.00;17.40;;;;;;;17.24;100.00;100483.66;105990;1254;61046;-71
2023/10/23 06:48:32;;;;;;;21.80;16.50;;;;;;;17.22;100.00;100479.59;105969;1250;60543;-70
2023/10/23 06:53:23;;;;;;;21.10;16.40;;;;;;;17.28;100.00;100483.66;102692;1292;600266;-72
2023/10/23 06:55:54;;;;;;;22.90;16.70;;;;;;;17.28;100.00;100486.80;105248;1259;61632;-72
2023/10/23 07:11:23;;;;;;;21.60;16.50;;;;;;;17.40;100.00;100486.06;102776;1292;600273;-70
2023/10/23 07:13:51;;;;;;;21.10;16.00;;;;;;;17.44;100.00;100486.63;104870;1271;60383;-72
2023/10/23 07:16:18;;;;;;;24.40;14.60;;;;;;;17.49;100.00;100484.76;105628;1260;59354;-70
2023/10/23 07:18:45;;;;;;;19.70;14.20;;;;;;;17.53;100.00;100486.66;105630;1260;70877;-74
2023/10/23 07:21:13;;;;;;;20.60;15.50;;;;;;;17.58;100.00;100492.31;105342;1261;63750;-71
2023/10/23 07:23:43;;;;;;;31.40;14.30;;;;;;;17.65;100.00;100487.89;105301;1263;72634;-72
2023/10/23 07:26:12;;;;;;;21.70;14.10;;;;;;;17.70;100.00;100488.62;105473;1254;207184;-70
2023/10/23 07:28:40;;;;;;;21.80;14.40;;;;;;;17.76;100.00;100486.16;105724;1253;59405;-72
2023/10/23 07:31:09;;;;;;;17.50;13.60;;;;;;;17.82;100.00;100487.92;105606;1254;71055;-74
2023/10/23 07:33:37;;;;;;;22.90;14.70;;;;;;;17.88;100.00;100489.10;105652;1259;63742;-70
2023/10/23 07:36:06;;;;;;;26.30;14.50;;;;;;;17.93;100.00;100495.70;105672;1258;72697;-72
2023/10/23 07:38:35;;;;;;;26.90;13.90;;;;;;;17.98;100.00;100496.81;105721;1261;60585;-72
2023/10/23 07:41:05;;;;;;;22.50;14.10;;;;;;;18.04;100.00;100499.67;105606;1259;59552;-70
2023/10/23 07:43:33;;;;;;;22.50;15.00;;;;;;;18.11;100.00;100500.08;105479;1260;71820;-68
2023/10/23 07:46:04;;;;;;;36.40;16.80;;;;;;;18.15;100.00;100505.02;105649;1259;63858;-68
2023/10/23 07:48:43;;;;;;;28.70;17.30;;;;;;;18.18;100.00;100505.04;105625;1258;71846;-68
2023/10/23 07:51:11;;;;;;;24.60;17.70;;;;;;;18.24;100.00;100508.04;105567;1255;60133;-69
2023/10/23 07:53:39;;;;;;;30.10;18.20;;;;;;;18.30;100.00;100506.82;105645;1260;60167;-67
2023/10/23 07:56:06;;;;;;;36.30;20.20;;;;;;;18.36;100.00;100504.48;105709;1254;72583;-72
2023/10/23 07:58:34;;;;;;;31.20;18.40;;;;;;;18.46;100.00;100506.90;105741;1254;63754;-72
2023/10/23 08:01:05;;;;;;;28.20;17.20;;;;;;;18.68;100.00;100513.10;105670;1254;71488;-74
2023/10/23 08:03:36;;;;;;;29.50;16.50;;;;;;;19.20;100.00;100508.61;105602;1255;60824;-72
2023/10/23 08:06:05;;;;;;;26.70;16.40;;;;;;;19.99;100.00;100509.81;105600;1260;60083;-72
2023/10/23 08:08:34;;;;;;;27.60;15.90;;;;;;;20.87;100.00;100500.95;105920;1256;71377;-72
2023/10/23 08:11:03;;;;;;;28.80;16.00;;;;;;;21.76;100.00;100499.18;105943;1254;65254;-69
2023/10/23 08:13:31;;;;;;;31.40;19.20;;;;;;;22.68;100.00;100498.11;105832;1250;71791;-73
2023/10/23 08:15:59;;;;;;;35.70;18.40;;;;;;;23.54;100.00;100494.80;105840;1251;60103;-73
2023/10/23 08:18:27;;;;;;;28.90;15.30;;;;;;;24.36;100.00;100493.19;106011;1256;60244;-75
2023/10/23 08:21:16;;;;;;;23.10;14.70;;;;;;;25.15;100.00;100500.40;106044;1254;73238;-73
2023/10/23 08:23:46;;;;;;;17.00;12.70;;;;;;;25.84;98.11;100496.71;105879;1252;63513;-72
2023/10/23 08:26:14;;;;;;;22.50;12.40;;;;;;;26.45;88.90;100492.19;105902;1257;72755;-72
2023/10/23 08:28:42;;;;;;;20.40;12.30;;;;;;;27.04;81.54;100491.44;105848;1254;59829;-71
2023/10/23 08:31:12;;;;;;;19.10;11.90;;;;;;;27.57;71.96;100482.25;105924;1251;59536;-71
2023/10/23 08:34:00;;;;;;;21.70;13.40;;;;;;;28.06;62.78;100480.61;105760;1255;73286;-73
2023/10/23 08:36:28;;;;;;;22.40;12.60;;;;;;;28.42;59.85;100481.86;105891;1254;62759;-70
2023/10/23 08:38:56;;;;;;;23.90;14.40;;;;;;;28.87;57.21;100485.49;105904;1250;71302;-69
2023/10/23 08:41:23;;;;;;;26.80;16.90;;;;;;;29.32;54.29;100487.07;105911;1251;59724;-71
2023/10/23 08:43:50;;;;;;;23.40;14.20;;;;;;;29.69;52.02;100477.43;105943;1256;59602;-72
2023/10/23 08:46:20;;;;;;;24.60;13.80;;;;;;;30.06;50.72;100472.89;105880;1251;73004;-73
2023/10/23 08:48:48;;;;;;;29.40;14.60;;;;;;;30.40;48.02;100472.63;105865;1252;63654;-75
2023/10/23 08:51:15;;;;;;;24.70;12.80;;;;;;;30.69;46.21;100472.25;105974;1256;72693;-73
2023/10/23 08:53:48;;;;;;;26.40;15.10;;;;;;;30.98;45.16;100466.09;105921;1256;60187;-73
2023/10/23 08:56:37;;;;;;;30.00;19.60;;;;;;;31.29;43.11;100467.41;105802;1250;59728;-75
2023/10/23 08:59:05;;;;;;;32.30;20.40;;;;;;;31.51;41.75;100468.75;105841;1251;71860;-71
2023/10/23 09:01:33;;;;;;;32.40;20.40;;;;;;;31.72;40.68;100466.85;105837;1251;62832;-70
2023/10/23 09:04:05;;;;;;;31.90;19.70;;;;;;;31.81;39.43;100462.61;105810;1251;72726;-72
2023/10/23 09:06:35;;;;;;;30.00;18.10;;;;;;;31.91;38.75;100462.61;105850;1251;59647;-69
2023/10/23 09:09:05;;;;;;;31.30;15.70;;;;;;;32.09;38.22;100460.59;105911;1251;59653;-68
2023/10/23 09:11:51;;;;;;;35.60;14.40;;;;;;;32.24;37.25;100457.23;105886;1251;73297;-73
2023/10/23 09:14:27;;;;;;;31.60;13.00;;;;;;;32.29;36.43;100463.23;105948;1251;62395;-73
2023/10/23 09:16:55;;;;;;;29.80;13.90;;;;;;;32.23;35.93;100457.58;105974;1254;74333;-71
2023/10/23 09:19:36;;;;;;;28.70;11.40;;;;;;;32.25;36.49;100458.77;105929;1251;59711;-71
2023/10/23 09:22:15;;;;;;;15.20;8.20;;;;;;;32.52;36.44;100455.63;105899;1250;59746;-72
2023/10/23 09:24:45;;;;;;;19.00;7.40;;;;;;;32.82;35.15;100451.04;105802;1254;73513;-71
2023/10/23 09:27:12;;;;;;;14.20;7.00;;;;;;;32.99;34.61;100450.27;105693;1251;62879;-73
2023/10/23 09:29:40;;;;;;;11.00;6.20;;;;;;;33.15;34.18;100446.55;105912;1251;71481;-71
2023/10/23 09:32:08;;;;;;;9.70;5.60;;;;;;;33.34;33.45;100441.52;105856;1257;59747;-71
2023/10/23 09:34:40;;;;;;;7.60;4.10;;;;;;;33.49;33.31;100438.66;105878;1251;59548;-75
2023/10/23 09:37:07;;;;;;;12.20;4.00;;;;;;;33.69;32.97;100435.02;105692;1250;73051;-69
2023/10/23 09:39:37;;;;;;;9.10;3.60;;;;;;;33.88;32.39;100432.56;105767;1251;63823;-74
2023/10/23 09:42:18;;;;;;;8.90;3.70;;;;;;;33.96;31.62;100431.21;105800;1254;70563;-71
2023/10/23 09:44:46;;;;;;;9.90;4.40;;;;;;;33.93;31.78;100430.82;105874;1251;59612;-74
2023/10/23 09:47:29;;;;;;;8.60;4.00;;;;;;;33.97;32.17;100424.08;105974;1256;60184;-69
2023/10/23 09:49:58;;;;;;;9.20;5.40;;;;;;;34.07;32.08;100417.56;106110;1256;72717;-69
2023/10/23 09:52:26;;;;;;;9.90;5.80;;;;;;;34.02;31.11;100416.20;106066;1250;64276;-68
2023/10/23 09:54:59;;;;;;;10.70;5.40;;;;;;;33.99;31.25;100412.64;105983;1256;73309;-71
2023/10/23 09:57:45;;;;;;;13.30;6.80;;;;;;;34.12;31.03;100412.73;109480;1250;60195;-69
2023/10/23 10:00:14;;;;;;;16.20;10.30;;;;;;;34.22;31.20;100408.64;108882;1251;60994;-67
2023/10/23 10:02:49;;;;;;;21.40;10.20;;;;;;;34.13;30.87;100408.30;105782;1257;71815;-70
2023/10/23 10:05:37;;;;;;;12.40;8.90;;;;;;;33.99;31.08;100406.64;105914;1256;63191;-71
2023/10/23 10:08:11;;;;;;;12.50;8.30;;;;;;;33.84;31.08;100402.30;105825;1251;72710;-74
2023/10/23 10:10:38;;;;;;;10.90;7.10;;;;;;;33.66;31.14;100400.86;105879;1254;59708;-74
2023/10/23 10:13:06;;;;;;;9.80;5.30;;;;;;;33.71;30.72;100395.45;105889;1254;60607;-72
2023/10/23 10:15:34;;;;;;;6.80;2.30;;;;;;;33.94;29.87;100396.95;105812;1254;72634;-70
2023/10/23 10:18:01;;;;;;;5.30;2.00;;;;;;;34.08;29.19;100395.43;105846;1254;64398;-72
2023/10/23 10:20:29;;;;;;;8.90;5.20;;;;;;;34.15;28.92;100396.02;105906;1253;72862;-73
2023/10/23 10:23:14;;;;;;;4.70;2.50;;;;;;;34.22;28.63;100399.61;105604;1251;60218;-74
2023/10/23 10:25:43;;;;;;;9.40;3.50;;;;;;;34.24;28.39;100393.85;105797;1252;59541;-74
2023/10/23 10:28:11;;;;;;;7.30;2.00;;;;;;;34.19;27.36;100394.55;105775;1254;72212;-72
2023/10/23 10:30:43;;;;;;;3.20;2.30;;;;;;;33.84;27.14;100393.27;105659;1257;62839;-73
2023/10/23 10:33:26;;;;;;;4.50;1.10;;;;;;;33.53;27.22;100390.05;105824;1250;72237;-73
2023/10/23 10:36:14;;;;;;;1.20;0.70;;;;;;;33.09;27.26;100390.94;105760;1250;62218;-69
2023/10/23 10:39:02;;;;;;;1.90;1.00;;;;;;;32.80;27.53;100393.75;105716;1256;59660;-70
2023/10/23 10:41:30;;;;;;;2.20;1.00;;;;;;;32.51;28.06;100393.15;105853;1254;75873;-71
2023/10/23 10:43:58;;;;;;;2.20;1.00;;;;;;;32.14;28.14;100389.16;105769;1257;62412;-74
2023/10/23 10:46:26;;;;;;;1.90;1.10;;;;;;;31.63;28.32;100385.87;105888;1254;73250;-74
2023/10/23 10:48:54;;;;;;;0.70;0.70;;;;;;;30.98;28.66;100383.02;105945;1254;60187;-72
2023/10/23 10:51:24;;;;;;;1.30;0.90;;;;;;;30.30;29.28;100387.31;105889;1250;60016;-70
2023/10/23 10:54:07;;;;;;;0.80;0.60;;;;;;;29.69;30.28;100381.41;105830;1256;72914;-71
2023/10/23 10:56:36;;;;;;;9.60;8.20;;;;;;;29.03;30.92;100381.14;105805;1250;63063;-70
2023/10/23 10:59:04;;;;;;;45.00;33.00;;;;;;;28.39;31.60;100380.60;105798;1256;71189;-69
2023/10/23 11:01:31;;;;;;;14.20;9.10;;;;;;;27.81;32.12;100376.48;105976;1251;60219;-69
2023/10/23 11:03:59;;;;;;;45.30;29.20;;;;;;;27.30;32.99;100376.63;105921;1251;61237;-72
2023/10/23 11:06:29;;;;;;;22.60;14.20;;;;;;;26.85;32.97;100381.88;105941;1250;73561;-72
2023/10/23 11:08:58;;;;;;;8.90;5.50;;;;;;;26.44;33.73;100385.39;105793;1252;63678;-71
2023/10/23 11:11:27;;;;;;;11.10;4.50;;;;;;;26.16;34.37;100385.66;105767;1256;72644;-71
2023/10/23 11:13:57;;;;;;;5.60;2.50;;;;;;;25.88;34.31;100384.06;105739;1251;60113;-70
2023/10/23 11:16:32;;;;;;;5.70;4.10;;;;;;;25.61;34.58;100385.25;105854;1256;59615;-72
2023/10/23 11:19:03;;;;;;;16.30;10.60;;;;;;;25.37;34.75;100386.69;106032;1254;73587;-70
2023/10/23 11:21:32;;;;;;;10.30;5.50;;;;;;;25.15;34.92;100384.23;105964;1254;64172;-71
2023/10/23 11:24:02;;;;;;;3.00;1.30;;;;;;;24.93;35.35;100381.95;105788;1254;72429;-72